• Join FlightAware (Why Join?)
  • Login
  • US Flag 
05:12PM EDT


 

Airport Tracker/Info


-or-


 

Live Flight TrackerFlight Track Log ✈ SWA554 ✈ 30-Aug-2013 ✈ KSMF - KLAX

Flight Track Log - Related Links

Times and Time Zones

All times are in EDT time to prevent confusion due to time zone crossing. See the SWA554 flight status page for this flight to view local times or setup timezone preferences in your user account.

Time Position Orientation Groundspeed Altitude Reporting Facility
EDT Latitude Longitude Course Direction KTS MPH feet Rate Location/Type
01:04PM 38.6500 -121.5833 123° Southeast 183 211 2,000  Level Northern Cal TRACON
01:05PM 38.6167 -121.5167 123° Southeast 227 261 4,000 2,400 Climbing Northern Cal TRACON
01:06PM 38.5833 -121.4333 117° Southeast 280 322 6,600 2,820 Climbing Northern Cal TRACON
01:07PM 38.5539 -121.3736 122° Southeast 265 305 9,500 2,580 Climbing Oakland Center
01:08PM 38.5069 -121.2756 121° Southeast 326 375 11,700 2,940 Climbing Oakland Center
01:09PM 38.4469 -121.1450 120° Southeast 353 406 15,600 3,000 Climbing Oakland Center
01:10PM 38.3983 -121.0400 121° Southeast 367 422 17,900 2,340 Climbing Oakland Center
01:11PM 38.3419 -120.9197 121° Southeast 388 447 20,500 2,580 Climbing Oakland Center
01:12PM 38.2839 -120.7958 121° Southeast 401 461 23,200 2,220 Climbing Oakland Center
01:13PM 38.2025 -120.6539 126° Southeast 421 484 25,100 1,380 Climbing Oakland Center
01:14PM 38.1083 -120.5650 143° Southeast 423 487 26,100 900 Climbing Oakland Center
01:15PM 38.0139 -120.4722 142° Southeast 427 491 27,000 420 Climbing Oakland Center
01:16PM 37.9203 -120.3817 143° Southeast 424 488 27,000  Level Oakland Center
01:17PM 37.8281 -120.2897 142° Southeast 422 486 27,000 540 Level Oakland Center
01:18PM 37.7339 -120.1964 142° Southeast 427 491 28,200 960 Climbing Oakland Center
01:19PM 37.6331 -120.1011 143° Southeast 444 511 29,000 1,200 Climbing Oakland Center
01:20PM 37.5114 -119.9850 143° Southeast 454 522 30,700 1,560 Climbing Oakland Center
01:21PM 37.4089 -119.8864 143° Southeast 461 531 32,300 1,440 Climbing Oakland Center
01:22PM 37.3172 -119.7992 143° Southeast 466 536 33,700 1,680 Climbing Oakland Center
01:23PM 37.1931 -119.6789 142° Southeast 469 540 35,800 1,860 Climbing Oakland Center
01:24PM 37.0867 -119.6025 150° Southeast 453 521 37,600 1,500 Climbing Oakland Center
01:25PM 36.9689 -119.5972 178° South 427 491 38,900 660 Climbing Oakland Center
01:26PM 36.8628 -119.6525 203° Southwest 425 489 39,000  Climbing Oakland Center
01:27PM 36.7658 -119.7314 213° Southwest 418 481 39,000  Level Oakland Center
01:28PM 36.6683 -119.8111 213° Southwest 419 482 39,000  Level Oakland Center
01:29PM 36.5508 -119.9047 213° Southwest 417 480 39,000  Level Oakland Center
01:30PM 36.4350 -119.9078 181° South 432 497 39,000  Level Oakland Center
01:31PM 36.3169 -119.8814 170° South 430 495 39,000  Level Oakland Center
01:33PM 36.1986 -119.8517 169° South 432 497 39,000  Level Oakland Center
01:34PM 36.0814 -119.8267 170° South 428 493 39,000  Level Oakland Center
01:35PM 35.9650 -119.8003 170° South 424 488 39,000  Level Oakland Center
01:35PM 35.8706 -119.7783 169° South 427 491 39,000  Level Los Angeles Center
01:36PM 35.7519 -119.7525 170° South 428 493 39,000  Level Los Angeles Center
01:37PM 35.6353 -119.7250 169° South 426 490 39,000  Level Los Angeles Center
01:38PM 35.5186 -119.7000 170° South 424 488 39,000  Level Los Angeles Center
01:39PM 35.4250 -119.6786 169° South 424 488 39,000  Level Los Angeles Center
01:40PM 35.2833 -119.6467 170° South 428 493 39,000 -960 Level Los Angeles Center
01:41PM 35.1581 -119.5586 150° Southeast 433 498 37,100 -2,040 Descending Los Angeles Center
01:43PM 35.0569 -119.4700 144° Southeast 443 510 34,900 -1,740 Descending Los Angeles Center
01:44PM 34.9589 -119.3881 146° Southeast 432 497 33,500 -2,580 Descending Los Angeles Center
01:45PM 34.8600 -119.3028 145° Southeast 433 498 29,600 -3,600 Descending Los Angeles Center
01:46PM 34.7539 -119.2119 145° Southeast 456 525 26,100 -3,180 Descending Los Angeles Center
01:47PM 34.6333 -119.1131 146° Southeast 459 528 23,100 -2,760 Descending Los Angeles Center
01:48PM 34.5289 -119.0253 145° Southeast 428 493 20,400 -2,520 Descending Los Angeles Center
01:49PM 34.4353 -118.9478 146° Southeast 406 467 18,000 -2,400 Descending Los Angeles Center
01:50PM 34.3442 -118.8769 147° Southeast 386 444 15,500 -2,340 Descending Los Angeles Center
01:51PM 34.2436 -118.8394 163° South 378 435 13,200 -1,860 Descending Los Angeles Center
01:52PM 34.1481 -118.8053 164° South 361 415 11,700 -1,320 Descending Los Angeles Center
01:53PM 34.0744 -118.7403 144° Southeast 304 350 10,500 -840 Descending Los Angeles Center
01:54PM 34.0536 -118.6458 105° East 271 312 10,000 -780 Descending Los Angeles Center
01:55PM 34.0369 -118.5756 106° East 261 300 8,900 -1,380 Descending Los Angeles Center
01:56PM 34.0136 -118.4717 105° East 261 300 7,200 -1,320 Descending Los Angeles Center
01:57PM 34.0167 -118.3947 87° East 258 297 6,200 -1,020 Descending Los Angeles Center
01:58PM 34.0244 -118.3106 84° East 254 292 5,100 -900 Descending Los Angeles Center
01:59PM 34.0331 -118.2372 82° East 227 261 4,400 -840 Descending Los Angeles Center
02:00PM 34.0211 -118.1733 103° East 199 229 3,400 -1,020 Descending Los Angeles Center
02:01PM 33.9808 -118.2061 214° Southwest 189 217 2,400 -600 Descending Los Angeles Center
02:02PM 33.9672 -118.2636 254° West 196 226 2,200 -540 Descending Los Angeles Center
02:03PM 33.9603 -118.3225 262° West 187 215 1,300 -780 Descending Los Angeles Center
02:04PM 33.9567 -118.3722 265° West 167 192 600 -480 Descending Los Angeles Center
02:05PM 34.0497 -118.4122 340° North 210 242 400 -240 Descending Los Angeles Center
02:07PM 34.0162 -118.2841 231° Southwest  Level FlightAware Approximate